createdAt,value
2019-05-17T11:04:50.572Z,62.10
2019-05-17T11:07:20.032Z,61.00
2019-05-17T11:09:51.020Z,61.50
2019-05-17T11:12:19.698Z,54.00
2019-05-17T11:14:52.528Z,52.60
2019-05-17T11:17:18.866Z,51.70
2019-05-17T11:19:47.427Z,49.30
2019-05-17T11:22:15.996Z,50.40
2019-05-17T11:24:44.682Z,51.70
2019-05-17T11:27:14.094Z,54.60
2019-05-17T11:29:42.727Z,53.50
2019-05-17T11:32:11.288Z,51.90
2019-05-17T11:34:39.786Z,52.10
2019-05-17T11:37:08.241Z,50.10
2019-05-17T11:39:36.797Z,52.30
2019-05-17T11:42:05.315Z,53.10
2019-05-17T11:44:34.308Z,53.00
2019-05-17T11:47:02.869Z,54.10
2019-05-17T11:49:31.323Z,55.10
2019-05-17T11:51:59.877Z,53.10
2019-05-17T11:54:28.534Z,53.50
2019-05-17T11:56:57.060Z,53.50
2019-05-17T11:59:25.520Z,53.50
2019-05-17T12:01:54.233Z,51.70
2019-05-17T12:04:22.694Z,50.20
2019-05-17T12:06:51.333Z,51.50
2019-05-17T12:09:19.941Z,53.50
2019-05-17T12:11:48.472Z,53.30
2019-05-17T12:14:17.019Z,50.60
2019-05-17T12:16:45.566Z,52.30
2019-05-17T12:19:14.399Z,53.40
2019-05-17T12:21:42.927Z,53.80
2019-05-17T12:24:11.472Z,54.20
2019-05-17T12:26:40.059Z,54.40
2019-05-17T12:29:09.034Z,54.60
2019-05-17T12:31:37.745Z,54.50
2019-05-17T12:34:06.348Z,54.20
2019-05-17T12:36:34.826Z,53.90
2019-05-17T12:39:04.880Z,54.10
2019-05-17T12:41:33.326Z,55.30
2019-05-17T12:44:01.878Z,54.10
2019-05-17T12:46:30.335Z,54.70
2019-05-17T12:49:01.882Z,54.80
2019-05-17T12:51:32.778Z,53.10
2019-05-17T12:53:59.356Z,52.20
2019-05-17T12:56:27.835Z,51.60
2019-05-17T12:58:56.635Z,52.50
2019-05-17T13:01:28.650Z,51.70
2019-05-17T13:03:57.202Z,53.50
2019-05-17T13:06:25.755Z,51.70
2019-05-17T13:08:54.234Z,52.80
2019-05-17T13:11:22.698Z,52.20
2019-05-17T13:13:51.151Z,51.60
2019-05-17T13:16:19.754Z,53.30
2019-05-17T13:18:48.311Z,51.60
2019-05-17T13:21:16.832Z,52.20
2019-05-17T13:23:45.327Z,54.80
2019-05-17T13:26:13.923Z,53.80
2019-05-17T13:28:42.376Z,54.70
2019-05-17T13:31:10.906Z,54.90
2019-05-17T13:33:39.476Z,52.10
2019-05-17T13:36:08.040Z,52.90
2019-05-17T13:38:36.605Z,53.30
2019-05-17T13:41:05.306Z,53.50
2019-05-17T13:43:33.891Z,54.60
2019-05-17T13:46:02.525Z,55.20
2019-05-17T13:48:31.056Z,54.00
2019-05-17T13:50:59.639Z,54.30
2019-05-17T13:53:28.186Z,54.70
2019-05-17T13:55:56.847Z,51.10
2019-05-17T13:58:25.581Z,53.40
2019-05-17T14:00:54.111Z,53.70
2019-05-17T14:03:23.160Z,52.30
2019-05-17T14:05:51.869Z,52.80
2019-05-17T14:08:20.384Z,53.30
2019-05-17T14:10:49.052Z,52.70
2019-05-17T14:13:17.541Z,51.90
2019-05-17T14:15:46.435Z,52.10
2019-05-17T14:18:15.032Z,51.10
2019-05-17T14:20:43.972Z,51.50
2019-05-17T14:23:12.776Z,51.10
2019-05-17T14:25:41.332Z,49.90
2019-05-17T14:28:11.398Z,51.40
2019-05-17T14:30:40.256Z,53.10
2019-05-17T14:33:08.839Z,51.40
2019-05-17T14:35:37.327Z,52.30
2019-05-17T14:38:06.020Z,52.20
2019-05-17T14:41:04.063Z,51.40
2019-05-17T14:43:04.795Z,52.40
2019-05-17T14:45:33.248Z,52.20
2019-05-17T14:48:01.958Z,52.30
2019-05-17T14:50:30.531Z,52.50
2019-05-17T14:52:58.989Z,52.90
2019-05-17T14:55:27.698Z,54.50
2019-05-17T14:57:56.513Z,52.90
2019-05-17T15:00:24.963Z,52.20
2019-05-17T15:02:53.423Z,52.40
2019-05-17T15:05:21.902Z,53.00
2019-05-17T15:07:50.794Z,52.80
2019-05-17T15:10:19.651Z,53.10
2019-05-17T15:12:48.127Z,53.20
2019-05-17T15:15:25.551Z,52.80
2019-05-17T15:18:30.615Z,52.60
2019-05-17T15:21:24.978Z,52.70
2019-05-17T15:23:51.515Z,53.90
2019-05-17T15:26:20.074Z,54.70
2019-05-17T15:28:48.536Z,53.50
2019-05-17T15:31:17.059Z,53.80
2019-05-17T15:33:45.538Z,54.00
2019-05-17T15:36:14.059Z,54.00
2019-05-17T15:38:42.512Z,54.00
2019-05-17T15:41:10.986Z,51.60
2019-05-17T15:43:39.538Z,53.00
2019-05-17T15:46:08.154Z,53.80
2019-05-17T15:48:36.628Z,53.60
2019-05-17T15:51:05.398Z,54.40
2019-05-17T15:53:33.933Z,56.10
2019-05-17T15:56:02.479Z,55.00
2019-05-17T15:58:31.032Z,56.60
2019-05-17T16:00:59.482Z,55.30
2019-05-17T16:03:28.054Z,54.80
2019-05-17T16:05:56.512Z,54.60
2019-05-17T16:08:24.965Z,54.60
2019-05-17T16:10:53.733Z,55.30
2019-05-17T16:13:22.202Z,56.20
2019-05-17T16:15:51.015Z,56.20
2019-05-17T16:18:19.587Z,55.90
2019-05-17T16:21:00.459Z,55.00
2019-05-17T16:23:29.118Z,55.00
2019-05-17T16:25:57.728Z,56.20
2019-05-17T16:28:26.522Z,55.40
2019-05-17T16:30:55.106Z,54.20
2019-05-17T16:33:23.557Z,55.20
2019-05-17T16:35:52.172Z,55.10
2019-05-17T16:38:21.295Z,54.50
2019-05-17T16:40:49.744Z,55.00
2019-05-17T16:43:18.780Z,55.50
2019-05-17T16:45:47.466Z,55.10
2019-05-17T16:48:16.271Z,55.40
2019-05-17T16:50:44.787Z,56.00
2019-05-17T16:53:13.510Z,54.90
2019-05-17T16:55:42.126Z,55.30
2019-05-17T16:58:10.656Z,54.00
2019-05-17T17:00:42.090Z,54.60
2019-05-17T17:03:10.723Z,54.30
2019-05-17T17:05:39.391Z,54.30
2019-05-17T17:08:08.087Z,54.80
2019-05-17T17:14:08.538Z,55.50
2019-05-17T17:16:37.235Z,55.50
2019-05-17T17:19:05.881Z,55.50
2019-05-17T17:21:34.547Z,55.40
2019-05-17T17:24:03.086Z,56.10
2019-05-17T17:26:31.692Z,55.50
2019-05-17T17:29:01.939Z,55.40
2019-05-17T17:31:31.351Z,55.50
2019-05-17T17:34:01.214Z,56.10
2019-05-17T17:36:29.760Z,55.60
2019-05-17T17:38:58.239Z,55.90
2019-05-17T17:41:28.527Z,55.40
2019-05-17T17:43:59.547Z,55.50
2019-05-17T17:46:28.508Z,55.10
2019-05-17T17:48:57.847Z,55.50
2019-05-17T17:51:27.764Z,56.50
2019-05-17T17:53:56.271Z,56.20
2019-05-17T17:56:27.476Z,56.20
2019-05-17T17:58:57.040Z,55.60
2019-05-17T18:01:25.730Z,56.60
2019-05-17T18:03:54.318Z,56.30
2019-05-17T18:06:23.098Z,56.70
2019-05-17T18:08:51.693Z,57.50
2019-05-17T18:12:12.066Z,56.80
2019-05-17T18:14:40.659Z,56.40
2019-05-17T18:17:09.671Z,57.10
2019-05-17T18:19:38.261Z,58.30
2019-05-17T18:22:06.951Z,58.60
2019-05-17T18:24:35.598Z,58.90
2019-05-17T18:27:04.259Z,58.70
2019-05-17T18:29:33.103Z,58.30
2019-05-17T18:32:01.835Z,58.90
2019-05-17T18:34:30.378Z,59.80
2019-05-17T18:36:59.063Z,59.90
2019-05-17T18:39:27.582Z,60.30
2019-05-17T18:41:56.289Z,58.70
2019-05-17T18:44:27.866Z,59.60
2019-05-17T18:46:55.300Z,58.50
2019-05-17T18:49:23.953Z,60.60
2019-05-17T18:51:53.118Z,59.70
2019-05-17T18:54:22.030Z,58.90
2019-05-17T18:56:50.894Z,58.80
2019-05-17T18:59:19.520Z,59.60
2019-05-17T19:01:48.066Z,60.50
2019-05-17T19:04:16.555Z,62.10
2019-05-17T19:06:45.162Z,62.10
2019-05-17T19:09:13.720Z,63.60
2019-05-17T19:11:43.402Z,63.50
2019-05-17T19:14:15.242Z,62.90
2019-05-17T19:16:43.894Z,60.70
2019-05-17T19:26:24.867Z,59.50
2019-05-17T19:28:53.427Z,58.70
2019-05-17T19:31:22.334Z,60.10
2019-05-17T19:33:50.817Z,59.60
2019-05-17T19:36:19.405Z,59.50
2019-05-17T19:38:48.398Z,60.10
2019-05-17T19:41:17.144Z,61.60
2019-05-17T19:43:45.769Z,60.70
2019-05-17T19:46:14.179Z,60.50
2019-05-17T19:48:42.914Z,60.30
2019-05-17T19:51:11.436Z,60.90
2019-05-17T19:53:40.115Z,61.00
2019-05-17T19:56:08.704Z,60.90
2019-05-17T19:58:37.218Z,62.40
2019-05-17T20:01:05.844Z,63.10
2019-05-17T20:03:34.388Z,64.40
2019-05-17T20:06:03.034Z,65.30
2019-05-17T20:08:31.630Z,65.10
2019-05-17T20:11:02.349Z,67.10
2019-05-17T20:13:30.800Z,67.20
2019-05-17T20:15:59.330Z,67.50
2019-05-17T20:18:27.812Z,68.70
2019-05-17T20:20:56.262Z,68.90
2019-05-17T20:23:24.707Z,68.10
2019-05-17T20:25:53.339Z,69.40
2019-05-17T20:28:22.127Z,68.80
2019-05-17T20:30:51.146Z,68.50
2019-05-17T20:33:19.652Z,69.10
2019-05-17T20:35:48.280Z,68.00
2019-05-17T20:38:16.802Z,68.00
2019-05-17T20:40:47.308Z,68.50
2019-05-17T20:43:15.775Z,67.40
2019-05-17T20:45:46.378Z,70.20
2019-05-17T20:48:14.854Z,67.50
2019-05-17T20:50:43.344Z,67.10
2019-05-17T20:53:19.068Z,67.20
2019-05-17T20:55:43.410Z,66.70
2019-05-17T20:58:12.020Z,67.20
2019-05-17T21:00:40.534Z,69.30
2019-05-17T21:03:08.988Z,67.20
2019-05-17T21:05:37.586Z,66.70
2019-05-17T21:08:06.224Z,67.20
2019-05-17T21:10:35.327Z,67.40
2019-05-17T21:13:22.136Z,67.70
2019-05-17T21:15:50.824Z,67.50
2019-05-17T21:18:19.346Z,68.20
2019-05-17T21:20:47.886Z,69.70
2019-05-17T21:23:16.342Z,68.30
2019-05-17T21:25:44.877Z,66.40
2019-05-17T21:28:13.427Z,67.10
2019-05-17T21:30:41.882Z,68.90
2019-05-17T21:33:10.423Z,67.30
2019-05-17T21:35:38.898Z,67.60
2019-05-17T21:38:11.221Z,68.50
2019-05-17T21:40:40.406Z,71.00
2019-05-17T21:43:08.954Z,71.20
2019-05-17T21:45:41.348Z,70.60
2019-05-17T21:48:15.017Z,69.60
2019-05-17T21:50:43.730Z,70.70
2019-05-17T21:53:13.851Z,71.20
2019-05-17T21:55:42.301Z,70.90
2019-05-17T21:58:10.874Z,71.00
2019-05-17T22:01:00.617Z,70.90
2019-05-17T22:03:29.414Z,71.80
2019-05-17T22:05:57.935Z,72.40
2019-05-17T22:08:26.444Z,73.00
2019-05-17T22:10:55.345Z,72.90
2019-05-17T22:13:23.834Z,72.20
2019-05-17T22:15:53.886Z,73.10
2019-05-17T22:18:23.087Z,72.60
2019-05-17T22:20:51.539Z,72.50
2019-05-17T22:23:21.346Z,72.70
2019-05-17T22:25:52.445Z,72.10
2019-05-17T22:28:24.054Z,72.00
2019-05-17T22:31:13.961Z,71.60
2019-05-17T22:33:42.590Z,71.50
2019-05-17T22:36:11.039Z,73.20
2019-05-17T22:38:39.819Z,74.70
2019-05-17T22:41:09.260Z,74.30
2019-05-17T22:43:37.988Z,74.30
2019-05-17T22:46:06.670Z,74.10
2019-05-17T22:48:35.215Z,74.50
2019-05-17T22:51:03.914Z,73.80
2019-05-17T22:53:32.397Z,74.00
2019-05-17T22:56:03.260Z,74.80
2019-05-17T22:58:34.230Z,74.40
2019-05-17T23:01:03.575Z,73.60
2019-05-17T23:03:32.124Z,73.20
2019-05-17T23:06:04.040Z,72.90
2019-05-17T23:08:34.866Z,73.20
2019-05-17T23:11:06.618Z,73.20
2019-05-17T23:13:37.941Z,74.30
2019-05-17T23:16:08.176Z,73.50
2019-05-17T23:18:36.732Z,73.20
2019-05-17T23:21:05.597Z,73.20
2019-05-17T23:23:34.194Z,72.90
2019-05-17T23:26:02.743Z,73.30
2019-05-17T23:28:31.304Z,72.40
2019-05-17T23:30:59.756Z,73.70
2019-05-17T23:33:28.373Z,72.10
2019-05-17T23:35:56.852Z,71.70
2019-05-17T23:38:25.371Z,73.60
2019-05-17T23:40:53.861Z,73.00
2019-05-17T23:43:22.403Z,71.70
2019-05-17T23:45:50.992Z,72.70
2019-05-17T23:48:19.474Z,73.80
2019-05-17T23:50:48.114Z,71.40
2019-05-17T23:53:16.661Z,72.10
2019-05-17T23:55:45.211Z,72.80
2019-05-17T23:58:13.678Z,72.90
